Rio Grande, Texas
Current Conditions -  °F | °C
As of 5:15 PM on Friday 31 Oct 2014 (Local Time) from KEBG Reporting Station
Scattered Clouds Scattered Clouds  
Wind Chill: 80°   Ceiling: Unl
Heat Index: 80°   Visibility: 10mi
Dew Point: 57°   Wind: 10mph
Humidity: 46%   Direction: 20°NNE
Pressure: 30.16"   Gusts: NA
Location:  26.5735°N, 98.695°W
Report Text: KEBG 312215Z AUTO 02009KT 10SM SCT045 27/14 A3016 RMK AO2 T02650139
Loading
Personal Weather Stations






























Interactive Weather Map New forecast layout! Learn more

10-Day Weather Forecast

Advertisements
Track Severe Weather on mobile